createdAt,value
2023-02-01T00:02:23.116Z,100273.75
2023-02-01T00:04:51.126Z,100272.09
2023-02-01T00:07:18.981Z,100279.56
2023-02-01T00:09:46.888Z,100274.13
2023-02-01T00:12:15.299Z,100271.78
2023-02-01T00:14:43.167Z,100269.06
2023-02-01T00:17:10.997Z,100275.72
2023-02-01T00:19:38.864Z,100274.84
2023-02-01T00:22:06.735Z,100269.59
2023-02-01T00:24:34.663Z,100268.06
2023-02-01T00:27:02.576Z,100269.94
2023-02-01T00:29:30.452Z,100271.78
2023-02-01T00:31:58.383Z,100276.41
2023-02-01T00:34:26.259Z,100281.38
2023-02-01T00:36:54.149Z,100278.66
2023-02-01T00:39:22.077Z,100277.97
2023-02-01T00:41:50.005Z,100284.25
2023-02-01T00:44:17.996Z,100285.97
2023-02-01T00:46:45.927Z,100283.25
2023-02-01T00:49:13.967Z,100285.13
2023-02-01T00:51:41.838Z,100291.56
2023-02-01T00:54:09.778Z,100280.91
2023-02-01T00:56:37.741Z,100274.78
2023-02-01T00:59:05.598Z,100287.53
2023-02-01T01:01:33.540Z,100283.78
2023-02-01T01:04:01.460Z,100290.25
2023-02-01T01:06:29.369Z,100289.59
2023-02-01T01:08:57.288Z,100281.22
2023-02-01T01:11:25.170Z,100289.38
2023-02-01T01:13:53.145Z,100291.47
2023-02-01T01:16:21.125Z,100291.63
2023-02-01T01:18:49.085Z,100289.09
2023-02-01T01:21:17.026Z,100289.97
2023-02-01T01:23:44.876Z,100292.69
2023-02-01T01:26:12.800Z,100289.28
2023-02-01T01:28:40.699Z,100288.44
2023-02-01T01:31:08.600Z,100293.88
2023-02-01T01:33:36.542Z,100283.19
2023-02-01T01:36:04.422Z,100283.00
2023-02-01T01:38:32.287Z,100280.47
2023-02-01T01:41:00.196Z,100272.28
2023-02-01T01:43:28.030Z,100273.34
2023-02-01T01:45:55.948Z,100267.03
2023-02-01T01:48:23.764Z,100266.38
2023-02-01T01:50:51.643Z,100261.78
2023-02-01T01:53:19.518Z,100256.34
2023-02-01T01:55:47.432Z,100242.94
2023-02-01T01:58:15.337Z,100240.19
2023-02-01T02:00:43.260Z,100232.88
2023-02-01T02:03:11.142Z,100241.41
2023-02-01T02:05:38.982Z,100242.44
2023-02-01T02:08:06.863Z,100233.44
2023-02-01T02:11:06.655Z,100228.19
2023-02-01T02:13:34.527Z,100213.91
2023-02-01T02:16:02.448Z,100212.91
2023-02-01T02:18:30.356Z,100210.19
2023-02-01T02:20:58.197Z,100214.75
2023-02-01T02:23:27.870Z,100211.19
2023-02-01T02:25:55.778Z,100214.13
2023-02-01T02:28:23.693Z,100225.84
2023-02-01T02:30:51.642Z,100223.13
2023-02-01T02:33:19.669Z,100228.91
2023-02-01T02:35:48.228Z,100229.94
2023-02-01T02:38:16.117Z,100221.13
2023-02-01T02:40:44.068Z,100216.72
2023-02-01T02:43:29.437Z,100216.72
2023-02-01T02:46:14.767Z,100214.19
2023-02-01T02:48:43.186Z,100214.34
2023-02-01T02:51:28.420Z,100209.97
2023-02-01T02:54:10.059Z,100219.31
2023-02-01T02:56:55.248Z,100215.72
2023-02-01T02:59:40.690Z,100222.88
2023-02-01T03:02:26.225Z,100214.06
2023-02-01T03:04:57.327Z,100209.66
2023-02-01T03:07:25.313Z,100208.78
2023-02-01T03:09:53.238Z,100211.50
2023-02-01T03:12:38.412Z,100206.06
2023-02-01T03:15:06.761Z,100209.81
2023-02-01T03:17:34.643Z,100217.13
2023-02-01T03:20:02.596Z,100205.22
2023-02-01T03:22:32.757Z,100201.84
2023-02-01T03:25:00.755Z,100211.03
2023-02-01T03:27:28.751Z,100203.91
2023-02-01T03:29:56.681Z,100200.16
2023-02-01T03:32:24.578Z,100199.13
2023-02-01T03:34:52.542Z,100200.00
2023-02-01T03:37:20.409Z,100188.25
2023-02-01T03:39:48.285Z,100183.47
2023-02-01T03:42:16.192Z,100186.41
2023-02-01T03:44:44.023Z,100191.84
2023-02-01T03:47:11.973Z,100174.66
2023-02-01T03:49:39.861Z,100196.41
2023-02-01T03:52:08.410Z,100194.34
2023-02-01T03:54:36.319Z,100180.97
2023-02-01T03:57:04.256Z,100172.59
2023-02-01T03:59:32.151Z,100178.25
2023-02-01T04:02:00.173Z,100174.66
2023-02-01T04:04:27.994Z,100168.59
2023-02-01T04:06:55.819Z,100162.94
2023-02-01T04:09:23.601Z,100162.94
2023-02-01T04:11:51.346Z,100167.53
2023-02-01T04:14:19.183Z,100159.56
2023-02-01T04:16:46.991Z,100165.88
2023-02-01T04:19:14.755Z,100152.28
2023-02-01T04:21:42.529Z,100142.41
2023-02-01T04:24:11.600Z,100140.53
2023-02-01T04:26:39.478Z,100136.97
2023-02-01T04:29:07.287Z,100142.41
2023-02-01T04:31:36.787Z,100128.81
2023-02-01T04:34:04.657Z,100126.09
2023-02-01T04:36:32.466Z,100128.81
2023-02-01T04:39:00.217Z,100129.03
2023-02-01T04:41:28.042Z,100123.59
2023-02-01T04:43:55.870Z,100123.59
2023-02-01T04:46:23.781Z,100119.38
2023-02-01T04:48:51.972Z,100119.38
2023-02-01T04:51:19.845Z,100120.19
2023-02-01T04:53:47.627Z,100122.09
2023-02-01T04:56:15.446Z,100125.81
2023-02-01T04:58:43.216Z,100116.81
2023-02-01T05:01:11.045Z,100117.66
2023-02-01T05:03:38.853Z,100117.00
2023-02-01T05:06:07.001Z,100117.84
2023-02-01T05:08:34.833Z,100124.13
2023-02-01T05:11:04.715Z,100110.91
2023-02-01T05:13:54.810Z,100120.06
2023-02-01T05:16:22.653Z,100118.22
2023-02-01T05:18:50.458Z,100115.50
2023-02-01T05:21:18.450Z,100109.19
2023-02-01T05:24:03.531Z,100112.13
2023-02-01T05:26:31.408Z,100114.84
2023-02-01T05:28:59.817Z,100103.75
2023-02-01T05:31:27.680Z,100102.09
2023-02-01T05:37:01.609Z,100100.59
2023-02-01T05:39:29.502Z,100101.63
2023-02-01T05:41:57.230Z,100099.91
2023-02-01T05:44:25.073Z,100099.06
2023-02-01T05:46:53.417Z,100101.78
2023-02-01T05:52:02.963Z,100095.69
2023-02-01T05:54:30.856Z,100098.41
2023-02-01T05:56:58.692Z,100094.84
2023-02-01T05:59:26.529Z,100090.44
2023-02-01T06:01:54.472Z,100080.44
2023-02-01T06:04:22.359Z,100091.47
2023-02-01T06:06:51.755Z,100096.91
2023-02-01T06:09:19.651Z,100093.50
2023-02-01T06:11:47.561Z,100079.09
2023-02-01T06:14:15.507Z,100086.56
2023-02-01T06:16:43.398Z,100086.56
2023-02-01T06:19:11.577Z,100090.31
2023-02-01T06:21:39.505Z,100086.75
2023-02-01T06:24:07.302Z,100076.75
2023-02-01T06:26:35.295Z,100070.63
2023-02-01T06:29:03.119Z,100071.47
2023-02-01T06:31:33.172Z,100068.59
2023-02-01T06:34:01.207Z,100057.72
2023-02-01T06:36:29.103Z,100058.56
2023-02-01T06:38:57.660Z,100061.47
2023-02-01T06:41:29.234Z,100060.81
2023-02-01T06:43:57.359Z,100069.97
2023-02-01T06:46:25.461Z,100055.38
2023-02-01T06:48:53.415Z,100054.53
2023-02-01T06:51:21.344Z,100050.94
2023-02-01T06:53:49.248Z,100055.75
2023-02-01T06:56:17.173Z,100062.84
2023-02-01T06:58:45.027Z,100057.41
2023-02-01T07:01:13.132Z,100053.88
2023-02-01T07:03:41.044Z,100050.13
2023-02-01T07:06:09.212Z,100053.66
2023-02-01T07:08:37.062Z,100049.94
2023-02-01T07:11:04.950Z,100044.50
2023-02-01T07:13:32.928Z,100047.22
2023-02-01T07:16:00.917Z,100052.66
2023-02-01T07:18:28.883Z,100047.22
2023-02-01T07:20:56.853Z,100040.97
2023-02-01T07:23:24.786Z,100039.06
2023-02-01T07:25:52.693Z,100040.75
2023-02-01T07:28:20.774Z,100036.16
2023-02-01T07:30:52.111Z,100035.31
2023-02-01T07:33:20.069Z,100042.63
2023-02-01T07:35:47.970Z,100036.38
2023-02-01T07:38:15.891Z,100032.81
2023-02-01T07:40:43.739Z,100035.31
2023-02-01T07:43:11.705Z,100027.38
2023-02-01T07:45:39.674Z,100038.25
2023-02-01T07:48:08.500Z,100037.38
2023-02-01T07:50:36.403Z,100017.34
2023-02-01T07:53:04.359Z,100018.34
2023-02-01T07:55:32.330Z,100032.59
2023-02-01T07:58:00.512Z,100035.31
2023-02-01T08:00:45.967Z,100028.38
2023-02-01T08:03:15.106Z,100024.81
2023-02-01T08:05:44.155Z,100042.16
2023-02-01T08:08:12.039Z,100038.56
2023-02-01T08:10:39.969Z,100048.22
2023-02-01T08:13:08.373Z,100041.13
2023-02-01T08:15:36.249Z,100043.84
2023-02-01T08:18:04.510Z,100048.22
2023-02-01T08:20:32.464Z,100039.06
2023-02-01T08:23:00.403Z,100031.09
2023-02-01T08:25:28.691Z,100040.28
2023-02-01T08:27:56.608Z,100037.56
2023-02-01T08:30:24.799Z,100045.72
2023-02-01T08:32:52.816Z,100043.13
2023-02-01T08:35:22.288Z,100036.88
2023-02-01T08:37:51.635Z,100040.63
2023-02-01T08:40:20.340Z,100044.19
2023-02-01T08:42:54.874Z,100055.03
2023-02-01T08:45:22.766Z,100047.94
2023-02-01T08:47:50.635Z,100057.09
2023-02-01T08:50:18.571Z,100045.22
2023-02-01T08:52:46.465Z,100058.13
2023-02-01T08:55:14.427Z,100057.28
2023-02-01T08:57:42.346Z,100058.13
2023-02-01T09:00:10.935Z,100054.56
2023-02-01T09:02:38.839Z,100064.94
2023-02-01T09:05:07.136Z,100059.72
2023-02-01T09:07:35.172Z,100060.72
2023-02-01T09:10:03.017Z,100063.63
2023-02-01T09:12:30.933Z,100069.22
2023-02-01T09:15:00.505Z,100058.19
2023-02-01T09:19:57.371Z,100068.03
2023-02-01T09:22:25.374Z,100074.28
2023-02-01T09:24:54.254Z,100074.28
2023-02-01T09:27:23.041Z,100075.13
2023-02-01T09:29:53.906Z,100076.00
2023-02-01T09:32:21.903Z,100083.28
2023-02-01T09:34:49.808Z,100086.00
2023-02-01T09:37:17.737Z,100094.13
2023-02-01T09:39:45.681Z,100095.00
2023-02-01T09:42:13.544Z,100081.44
2023-02-01T09:44:44.257Z,100088.53
2023-02-01T09:47:12.559Z,100083.94
2023-02-01T09:49:43.718Z,100089.38
2023-02-01T09:52:11.648Z,100097.53
2023-02-01T09:54:39.537Z,100105.88
2023-02-01T09:57:07.455Z,100103.16
2023-02-01T09:59:35.354Z,100092.09
2023-02-01T10:02:03.361Z,100089.59
2023-02-01T10:04:31.290Z,100094.81
2023-02-01T10:06:59.212Z,100092.28
2023-02-01T10:09:31.875Z,100097.53
2023-02-01T10:11:59.734Z,100095.66
2023-02-01T10:14:27.670Z,100091.09
2023-02-01T10:16:55.874Z,100093.81
2023-02-01T10:19:23.843Z,100094.81
2023-02-01T10:21:51.689Z,100094.66
2023-02-01T10:24:19.622Z,100092.59
2023-02-01T10:26:47.630Z,100100.75
2023-02-01T10:29:15.524Z,100098.19
2023-02-01T10:31:43.577Z,100100.75
2023-02-01T10:34:13.821Z,100095.47
2023-02-01T10:36:41.688Z,100096.53
2023-02-01T10:39:10.931Z,100101.94
2023-02-01T10:41:40.218Z,100107.38
2023-02-01T10:44:08.199Z,100108.22
2023-02-01T10:46:36.166Z,100100.25
2023-02-01T10:49:04.086Z,100093.97
2023-02-01T10:51:32.133Z,100094.13
2023-02-01T10:54:00.098Z,100078.53
2023-02-01T10:56:28.058Z,100093.13
2023-02-01T10:58:58.949Z,100087.03
2023-02-01T11:01:26.927Z,100079.72
2023-02-01T11:03:54.878Z,100068.19
2023-02-01T11:06:22.793Z,100074.50
2023-02-01T11:08:50.695Z,100073.81
2023-02-01T11:11:19.499Z,100077.75
2023-02-01T11:13:48.290Z,100078.56
2023-02-01T11:16:16.797Z,100087.75
2023-02-01T11:18:44.760Z,100094.03
2023-02-01T11:21:12.623Z,100084.00
2023-02-01T11:23:40.522Z,100094.88
2023-02-01T11:26:08.471Z,100077.06
2023-02-01T11:28:36.395Z,100090.66
2023-02-01T11:31:04.586Z,100084.38
2023-02-01T11:33:35.111Z,100081.00
2023-02-01T11:36:03.155Z,100074.72
2023-02-01T11:38:31.378Z,100072.00
2023-02-01T11:40:59.351Z,100079.31
2023-02-01T11:43:27.262Z,100076.59
2023-02-01T11:45:55.252Z,100081.00
2023-02-01T11:48:26.786Z,100082.03
2023-02-01T11:50:55.306Z,100072.16
2023-02-01T11:53:23.220Z,100050.44
2023-02-01T11:55:51.125Z,100056.72
2023-02-01T11:58:19.055Z,100061.16
2023-02-01T12:00:46.975Z,100062.34
2023-02-01T12:03:14.927Z,100062.34
2023-02-01T12:05:42.880Z,100057.91
2023-02-01T12:08:10.738Z,100067.09
2023-02-01T12:10:38.651Z,100058.97
2023-02-01T12:13:07.481Z,100057.66
2023-02-01T12:15:35.324Z,100052.38
2023-02-01T12:18:03.368Z,100054.25
2023-02-01T12:20:33.645Z,100050.88
2023-02-01T12:23:01.511Z,100036.47
2023-02-01T12:25:29.474Z,100035.44
2023-02-01T12:27:57.534Z,100029.16
2023-02-01T12:30:25.980Z,100033.75
2023-02-01T12:32:53.970Z,100018.47
2023-02-01T12:35:21.803Z,100015.13
2023-02-01T12:37:55.802Z,100016.97
2023-02-01T12:40:23.982Z,100015.28
2023-02-01T12:42:52.040Z,100019.88
2023-02-01T12:45:19.987Z,100021.75
2023-02-01T12:47:47.920Z,100005.47
2023-02-01T12:50:16.266Z,100014.59
2023-02-01T12:52:44.126Z,100006.47
2023-02-01T12:55:12.001Z,100001.03
2023-02-01T12:57:39.941Z,100012.72
2023-02-01T13:00:07.963Z,99999.34
2023-02-01T13:02:37.512Z,100012.72
2023-02-01T13:05:05.397Z,100004.78
2023-02-01T13:07:33.215Z,99992.06
2023-02-01T13:10:01.298Z,99992.91
2023-02-01T13:12:29.132Z,99983.91
2023-02-01T13:14:57.045Z,99977.66
2023-02-01T13:17:25.745Z,99982.88
2023-02-01T13:19:53.645Z,99977.44
2023-02-01T13:22:21.517Z,99973.06
2023-02-01T13:24:49.456Z,99973.91
2023-02-01T13:27:17.341Z,99970.16
2023-02-01T13:29:45.393Z,99975.59
2023-02-01T13:32:18.505Z,99982.22
2023-02-01T13:34:46.581Z,99975.94
2023-02-01T13:37:14.738Z,99962.19
2023-02-01T13:39:43.407Z,99965.09
2023-02-01T13:42:11.258Z,99962.19
2023-02-01T13:44:39.069Z,99972.22
2023-02-01T13:47:07.035Z,99947.59
2023-02-01T13:49:34.907Z,99964.75
2023-02-01T13:52:02.783Z,99958.66
2023-02-01T13:54:30.645Z,99950.50
2023-02-01T13:57:00.135Z,99954.22
2023-02-01T13:59:27.973Z,99947.13
2023-02-01T14:01:55.848Z,99947.97
2023-02-01T14:04:23.726Z,99941.69
2023-02-01T14:06:51.606Z,99933.72
2023-02-01T14:09:20.172Z,99932.72
2023-02-01T14:11:48.138Z,99935.44
2023-02-01T14:14:15.977Z,99937.94
2023-02-01T14:16:43.923Z,99916.22
2023-02-01T14:19:11.920Z,99911.66
2023-02-01T14:21:39.846Z,99901.44
2023-02-01T14:24:07.778Z,99902.09
2023-02-01T14:26:35.861Z,99894.16
2023-02-01T14:29:03.892Z,99891.44
2023-02-01T14:31:32.492Z,99891.25
2023-02-01T14:34:00.472Z,99883.31
2023-02-01T14:36:30.902Z,99878.72
2023-02-01T14:38:58.789Z,99881.22
2023-02-01T14:41:26.852Z,99871.88
2023-02-01T14:43:54.773Z,99871.34
2023-02-01T14:46:22.712Z,99865.53
2023-02-01T14:48:50.576Z,99871.13
2023-02-01T14:51:18.469Z,99868.81
2023-02-01T14:53:47.792Z,99864.69
2023-02-01T14:56:15.711Z,99862.59
2023-02-01T14:58:43.644Z,99873.47
2023-02-01T15:01:11.616Z,99860.56
2023-02-01T15:03:39.473Z,99852.53
2023-02-01T15:06:08.057Z,99868.72
2023-02-01T15:08:35.952Z,99866.25
2023-02-01T15:11:03.884Z,99869.00
2023-02-01T15:13:31.774Z,99871.13
2023-02-01T15:15:59.689Z,99866.72
2023-02-01T15:18:27.574Z,99863.47
2023-02-01T15:21:09.647Z,99857.22
2023-02-01T15:23:43.637Z,99864.03
2023-02-01T15:26:11.890Z,99831.44
2023-02-01T15:28:39.751Z,99820.31
2023-02-01T15:31:07.739Z,99814.84
2023-02-01T15:33:35.663Z,99826.69
2023-02-01T15:36:03.630Z,99825.41
2023-02-01T15:38:31.805Z,99804.38
2023-02-01T15:40:59.717Z,99820.63
2023-02-01T15:43:27.884Z,99810.53
2023-02-01T15:45:56.596Z,99798.97
2023-02-01T15:48:24.506Z,99808.59
2023-02-01T15:50:52.467Z,99812.56
2023-02-01T15:53:20.336Z,99803.94
2023-02-01T15:55:48.866Z,99792.72
2023-02-01T15:58:16.731Z,99845.59
2023-02-01T16:00:44.593Z,99881.53
2023-02-01T16:03:12.486Z,99958.13
2023-02-01T16:05:40.967Z,99994.31
2023-02-01T16:08:09.271Z,100005.41
2023-02-01T16:10:37.219Z,100005.34
2023-02-01T16:13:05.127Z,99993.97
2023-02-01T16:15:32.973Z,99975.09
2023-02-01T16:18:00.863Z,99956.31
2023-02-01T16:20:28.900Z,99947.50
2023-02-01T16:22:56.732Z,99950.84
2023-02-01T16:25:24.931Z,99951.66
2023-02-01T16:27:53.037Z,99942.38
2023-02-01T16:30:24.155Z,99925.66
2023-02-01T16:32:52.127Z,99927.03
2023-02-01T16:35:20.786Z,99952.41
2023-02-01T16:37:48.798Z,99968.03
2023-02-01T16:40:16.704Z,99973.16
2023-02-01T16:42:44.609Z,99956.16
2023-02-01T16:45:12.471Z,99966.84
2023-02-01T16:47:41.740Z,99963.34
2023-02-01T16:50:21.597Z,99964.66
2023-02-01T16:52:50.872Z,99959.28
2023-02-01T16:55:18.742Z,99958.50
2023-02-01T16:57:46.608Z,99970.66
2023-02-01T17:00:23.910Z,99968.41
2023-02-01T17:02:52.672Z,99957.91
2023-02-01T17:05:20.613Z,99951.19
2023-02-01T17:07:48.535Z,99951.28
2023-02-01T17:10:18.931Z,99960.34
2023-02-01T17:12:49.326Z,99956.88
2023-02-01T17:15:17.197Z,99955.78
2023-02-01T17:17:45.887Z,99945.78
2023-02-01T17:20:13.738Z,99957.19
2023-02-01T17:22:41.648Z,99949.88
2023-02-01T17:25:09.596Z,99945.16
2023-02-01T17:27:38.846Z,99947.22
2023-02-01T17:30:07.088Z,99954.75
2023-02-01T17:32:35.095Z,99953.84
2023-02-01T17:35:03.023Z,99964.31
2023-02-01T17:37:30.876Z,99965.22
2023-02-01T17:39:58.846Z,99970.81
2023-02-01T17:42:26.688Z,99972.22
2023-02-01T17:44:55.634Z,99967.19
2023-02-01T17:47:23.848Z,99968.88
2023-02-01T17:49:56.669Z,99970.38
2023-02-01T17:52:24.958Z,99972.88
2023-02-01T17:54:54.282Z,99978.91
2023-02-01T17:57:22.390Z,99981.22
2023-02-01T17:59:50.291Z,99985.72
2023-02-01T18:02:18.364Z,99985.75
2023-02-01T18:04:46.288Z,99997.41
2023-02-01T18:07:14.188Z,100000.81
2023-02-01T18:09:42.572Z,100002.81
2023-02-01T18:12:10.429Z,100002.03
2023-02-01T18:14:38.385Z,100006.94
2023-02-01T18:17:06.488Z,100009.72
2023-02-01T18:19:35.128Z,100000.66
2023-02-01T18:22:03.268Z,100010.84
2023-02-01T18:24:33.659Z,100007.81
2023-02-01T18:27:02.111Z,99996.16
2023-02-01T18:29:30.078Z,100003.56
2023-02-01T18:31:58.007Z,99993.72
2023-02-01T18:34:27.379Z,99984.53
2023-02-01T18:36:55.318Z,99992.09
2023-02-01T18:39:23.613Z,99994.66
2023-02-01T18:41:52.362Z,99998.34
2023-02-01T18:44:20.265Z,99995.47
2023-02-01T18:46:48.212Z,99996.22
2023-02-01T18:49:18.223Z,99997.38
2023-02-01T18:51:46.852Z,100005.81
2023-02-01T18:54:14.718Z,99997.78
2023-02-01T18:56:43.338Z,99998.75
2023-02-01T18:59:11.905Z,99999.75
2023-02-01T19:01:40.014Z,99990.03
2023-02-01T19:04:09.181Z,100001.94
2023-02-01T19:06:43.068Z,99999.84
2023-02-01T19:09:11.061Z,99994.72
2023-02-01T19:11:39.145Z,99992.31
2023-02-01T19:14:07.203Z,100002.75
2023-02-01T19:16:39.863Z,99995.53
2023-02-01T19:19:07.882Z,99998.22
2023-02-01T19:21:35.822Z,99997.81
2023-02-01T19:24:03.945Z,100006.16
2023-02-01T19:26:31.897Z,100016.50
2023-02-01T19:28:59.883Z,100042.16
2023-02-01T19:31:27.854Z,100034.59
2023-02-01T19:33:56.006Z,100037.69
2023-02-01T19:36:23.956Z,100034.72
2023-02-01T19:38:52.159Z,100043.63
2023-02-01T19:41:20.039Z,100043.25
2023-02-01T19:43:48.064Z,100050.78
2023-02-01T19:46:16.017Z,100051.81
2023-02-01T19:48:43.858Z,100048.44
2023-02-01T19:51:12.925Z,100041.84
2023-02-01T19:53:40.967Z,100042.00
2023-02-01T19:56:09.275Z,100048.47
2023-02-01T19:58:37.156Z,100050.13
2023-02-01T20:01:06.283Z,100057.69
2023-02-01T20:03:34.185Z,100066.09
2023-02-01T20:06:02.081Z,100064.41
2023-02-01T20:08:29.896Z,100066.91
2023-02-01T20:10:58.244Z,100078.63
2023-02-01T20:13:26.667Z,100077.75
2023-02-01T20:15:54.596Z,100077.91
2023-02-01T20:18:22.458Z,100093.81
2023-02-01T20:20:50.428Z,100096.25
2023-02-01T20:23:19.296Z,100088.41
2023-02-01T20:25:48.320Z,100085.16
2023-02-01T20:28:16.203Z,100070.63
2023-02-01T20:30:44.412Z,100092.59
2023-02-01T20:33:12.317Z,100107.47
2023-02-01T20:35:40.212Z,100111.16
2023-02-01T20:38:08.640Z,100113.44
2023-02-01T20:40:36.526Z,100114.41
2023-02-01T20:43:04.424Z,100121.28
2023-02-01T20:45:32.375Z,100141.59
2023-02-01T20:48:00.268Z,100160.41
2023-02-01T20:50:28.246Z,100146.34
2023-02-01T20:52:56.207Z,100132.63
2023-02-01T20:55:25.373Z,100125.91
2023-02-01T20:57:53.707Z,100113.50
2023-02-01T21:00:22.673Z,100111.16
2023-02-01T21:02:50.519Z,100101.50
2023-02-01T21:05:18.345Z,100115.66
2023-02-01T21:07:46.220Z,100129.66
2023-02-01T21:10:14.150Z,100147.69
2023-02-01T21:12:42.080Z,100137.84
2023-02-01T21:15:09.946Z,100122.91
2023-02-01T21:17:39.437Z,100113.44
2023-02-01T21:20:08.593Z,100133.91
2023-02-01T21:22:36.429Z,100151.97
2023-02-01T21:25:04.403Z,100144.16
2023-02-01T21:27:32.314Z,100125.47
2023-02-01T21:30:00.259Z,100132.16
2023-02-01T21:32:28.123Z,100125.19
2023-02-01T21:34:55.956Z,100127.25
2023-02-01T21:37:25.771Z,100132.06
2023-02-01T21:39:53.647Z,100124.09
2023-02-01T21:42:23.958Z,100119.03
2023-02-01T21:44:51.867Z,100113.97
2023-02-01T21:47:21.323Z,100118.53
2023-02-01T21:49:53.928Z,100111.81
2023-02-01T21:52:22.100Z,100127.69
2023-02-01T21:54:52.139Z,100125.97
2023-02-01T21:57:20.074Z,100132.66
2023-02-01T21:59:48.430Z,100129.09
2023-02-01T22:02:17.031Z,100120.47
2023-02-01T22:04:45.168Z,100118.56
2023-02-01T22:07:13.386Z,100119.81
2023-02-01T22:09:41.248Z,100117.25
2023-02-01T22:12:09.329Z,100118.31
2023-02-01T22:14:37.162Z,100112.38
2023-02-01T22:17:05.291Z,100116.53
2023-02-01T22:19:33.185Z,100110.41
2023-02-01T22:22:01.053Z,100105.34
2023-02-01T22:24:28.921Z,100101.78
2023-02-01T22:26:56.755Z,100097.19
2023-02-01T22:29:42.363Z,100108.63
2023-02-01T22:32:10.322Z,100103.19
2023-02-01T22:34:39.182Z,100108.84
2023-02-01T22:37:07.245Z,100099.81
2023-02-01T22:39:35.103Z,100101.03
2023-02-01T22:42:03.636Z,100102.06
2023-02-01T22:44:31.571Z,100105.84
2023-02-01T22:46:59.541Z,100103.28
2023-02-01T22:49:27.448Z,100099.91
2023-02-01T22:51:55.320Z,100116.41
2023-02-01T22:54:23.203Z,100118.25
2023-02-01T22:56:51.182Z,100125.56
2023-02-01T22:59:19.060Z,100136.44
2023-02-01T23:01:46.954Z,100134.56
2023-02-01T23:04:14.868Z,100148.38
2023-02-01T23:06:42.923Z,100164.03
2023-02-01T23:09:12.343Z,100164.03
2023-02-01T23:11:40.237Z,100152.47
2023-02-01T23:14:08.077Z,100147.88
2023-02-01T23:16:36.264Z,100145.16
2023-02-01T23:19:04.149Z,100140.75
2023-02-01T23:21:32.062Z,100149.97
2023-02-01T23:23:59.919Z,100157.28
2023-02-01T23:26:27.848Z,100146.56
2023-02-01T23:28:55.899Z,100145.75
2023-02-01T23:31:23.963Z,100144.03
2023-02-01T23:33:54.984Z,100147.78
2023-02-01T23:36:22.879Z,100158.66
2023-02-01T23:38:50.843Z,100154.44
2023-02-01T23:41:18.907Z,100151.91
2023-02-01T23:43:58.907Z,100153.78
2023-02-01T23:46:26.781Z,100152.28
2023-02-01T23:48:54.892Z,100153.31
2023-02-01T23:51:22.760Z,100146.16
2023-02-01T23:53:50.623Z,100148.88
2023-02-01T23:56:18.484Z,100134.66
2023-02-01T23:58:46.336Z,100130.88
